sensor_id;sensor_type;location;lat;lon;timestamp;pressure;altitude;pressure_sealevel;temperature;humidity
38900;BME280;24660;43.238;26.576;2022-12-07T00:01:55;99540.16;;;2.31;100.00
38900;BME280;24660;43.238;26.576;2022-12-07T00:04:20;99542.88;;;2.30;100.00
38900;BME280;24660;43.238;26.576;2022-12-07T00:06:46;99547.59;;;2.42;100.00
38900;BME280;24660;43.238;26.576;2022-12-07T00:09:16;99538.38;;;2.32;100.00
38900;BME280;24660;43.238;26.576;2022-12-07T00:11:41;99539.63;;;2.23;100.00
38900;BME280;24660;43.238;26.576;2022-12-07T00:14:09;99544.50;;;2.32;100.00
38900;BME280;24660;43.238;26.576;2022-12-07T00:16:35;99541.09;;;2.68;100.00
38900;BME280;24660;43.238;26.576;2022-12-07T00:19:01;99535.66;;;2.33;100.00
38900;BME280;24660;43.238;26.576;2022-12-07T00:21:27;99540.38;;;2.46;100.00
38900;BME280;24660;43.238;26.576;2022-12-07T00:23:53;99540.16;;;2.69;100.00
38900;BME280;24660;43.238;26.576;2022-12-07T00:26:20;99545.88;;;2.60;100.00
38900;BME280;24660;43.238;26.576;2022-12-07T00:28:46;99548.34;;;2.63;100.00
38900;BME280;24660;43.238;26.576;2022-12-07T00:31:13;99554.78;;;2.76;100.00
38900;BME280;24660;43.238;26.576;2022-12-07T00:33:39;99545.72;;;2.44;100.00
38900;BME280;24660;43.238;26.576;2022-12-07T00:36:06;99538.06;;;2.38;100.00
38900;BME280;24660;43.238;26.576;2022-12-07T00:38:32;99538.44;;;2.49;100.00
38900;BME280;24660;43.238;26.576;2022-12-07T00:40:59;99542.16;;;2.64;100.00
38900;BME280;24660;43.238;26.576;2022-12-07T00:43:25;99544.22;;;2.38;100.00
38900;BME280;24660;43.238;26.576;2022-12-07T00:45:50;99550.28;;;2.59;100.00
38900;BME280;24660;43.238;26.576;2022-12-07T00:48:15;99543.56;;;2.33;100.00
38900;BME280;24660;43.238;26.576;2022-12-07T00:50:41;99550.47;;;2.36;100.00
38900;BME280;24660;43.238;26.576;2022-12-07T00:53:06;99543.66;;;2.70;100.00
38900;BME280;24660;43.238;26.576;2022-12-07T00:55:33;99543.75;;;2.68;100.00
38900;BME280;24660;43.238;26.576;2022-12-07T00:57:58;99542.56;;;2.36;100.00
38900;BME280;24660;43.238;26.576;2022-12-07T01:00:24;99543.88;;;2.27;100.00
38900;BME280;24660;43.238;26.576;2022-12-07T01:02:49;99546.66;;;2.62;100.00
38900;BME280;24660;43.238;26.576;2022-12-07T01:05:14;99535.16;;;2.44;100.00
38900;BME280;24660;43.238;26.576;2022-12-07T01:07:39;99526.97;;;1.92;100.00
38900;BME280;24660;43.238;26.576;2022-12-07T01:10:05;99525.97;;;1.56;100.00
38900;BME280;24660;43.238;26.576;2022-12-07T01:12:30;99533.31;;;1.47;100.00
38900;BME280;24660;43.238;26.576;2022-12-07T01:14:56;99534.00;;;1.73;100.00
38900;BME280;24660;43.238;26.576;2022-12-07T01:17:21;99539.41;;;2.09;100.00
38900;BME280;24660;43.238;26.576;2022-12-07T01:19:46;99532.19;;;1.94;100.00
38900;BME280;24660;43.238;26.576;2022-12-07T01:22:12;99536.28;;;2.01;100.00
38900;BME280;24660;43.238;26.576;2022-12-07T01:24:37;99533.16;;;2.12;100.00
38900;BME280;24660;43.238;26.576;2022-12-07T01:27:02;99534.00;;;2.12;100.00
38900;BME280;24660;43.238;26.576;2022-12-07T01:29:28;99535.94;;;1.88;100.00
38900;BME280;24660;43.238;26.576;2022-12-07T01:31:53;99530.88;;;1.84;100.00
38900;BME280;24660;43.238;26.576;2022-12-07T01:34:18;99535.66;;;1.94;100.00
38900;BME280;24660;43.238;26.576;2022-12-07T01:36:44;99545.88;;;2.41;100.00
38900;BME280;24660;43.238;26.576;2022-12-07T01:39:09;99546.16;;;2.54;100.00
38900;BME280;24660;43.238;26.576;2022-12-07T01:41:36;99539.66;;;2.42;100.00
38900;BME280;24660;43.238;26.576;2022-12-07T01:44:12;99541.38;;;2.62;100.00
38900;BME280;24660;43.238;26.576;2022-12-07T01:46:38;99532.56;;;2.80;100.00
38900;BME280;24660;43.238;26.576;2022-12-07T01:49:04;99523.63;;;2.47;100.00
38900;BME280;24660;43.238;26.576;2022-12-07T01:51:31;99525.59;;;2.79;100.00
38900;BME280;24660;43.238;26.576;2022-12-07T01:53:56;99515.34;;;2.54;100.00
38900;BME280;24660;43.238;26.576;2022-12-07T01:56:23;99508.13;;;2.20;100.00
38900;BME280;24660;43.238;26.576;2022-12-07T01:58:49;99507.50;;;2.15;100.00
38900;BME280;24660;43.238;26.576;2022-12-07T02:01:16;99519.09;;;2.86;100.00
38900;BME280;24660;43.238;26.576;2022-12-07T02:03:42;99513.81;;;2.86;100.00
38900;BME280;24660;43.238;26.576;2022-12-07T02:06:08;99512.09;;;2.85;100.00
38900;BME280;24660;43.238;26.576;2022-12-07T02:08:35;99506.63;;;2.52;100.00
38900;BME280;24660;43.238;26.576;2022-12-07T02:11:02;99508.50;;;2.69;100.00
38900;BME280;24660;43.238;26.576;2022-12-07T02:13:29;99497.03;;;2.32;100.00
38900;BME280;24660;43.238;26.576;2022-12-07T02:18:25;99498.56;;;2.74;100.00
38900;BME280;24660;43.238;26.576;2022-12-07T02:23:44;99477.09;;;2.63;100.00
38900;BME280;24660;43.238;26.576;2022-12-07T02:29:07;99479.75;;;2.63;100.00
38900;BME280;24660;43.238;26.576;2022-12-07T02:31:36;99473.78;;;2.41;100.00
38900;BME280;24660;43.238;26.576;2022-12-07T02:34:05;99481.75;;;2.58;100.00
38900;BME280;24660;43.238;26.576;2022-12-07T02:36:35;99480.13;;;2.36;100.00
38900;BME280;24660;43.238;26.576;2022-12-07T02:41:32;99490.81;;;2.52;100.00
38900;BME280;24660;43.238;26.576;2022-12-07T02:43:59;99492.97;;;2.80;100.00
38900;BME280;24660;43.238;26.576;2022-12-07T02:46:28;99490.09;;;2.67;100.00
38900;BME280;24660;43.238;26.576;2022-12-07T02:48:55;99487.25;;;2.34;100.00
38900;BME280;24660;43.238;26.576;2022-12-07T02:51:21;99506.13;;;2.06;100.00
38900;BME280;24660;43.238;26.576;2022-12-07T02:53:46;99498.59;;;2.18;100.00
38900;BME280;24660;43.238;26.576;2022-12-07T03:04:20;99502.63;;;2.62;100.00
38900;BME280;24660;43.238;26.576;2022-12-07T03:06:53;99510.84;;;2.75;100.00
38900;BME280;24660;43.238;26.576;2022-12-07T03:09:22;99497.19;;;2.84;100.00
38900;BME280;24660;43.238;26.576;2022-12-07T03:11:55;99497.00;;;2.70;100.00
38900;BME280;24660;43.238;26.576;2022-12-07T03:14:29;99499.84;;;2.65;100.00
38900;BME280;24660;43.238;26.576;2022-12-07T03:16:57;99508.91;;;2.60;100.00
38900;BME280;24660;43.238;26.576;2022-12-07T03:19:26;99512.91;;;2.68;100.00
38900;BME280;24660;43.238;26.576;2022-12-07T03:21:54;99513.31;;;2.97;100.00
38900;BME280;24660;43.238;26.576;2022-12-07T03:24:21;99515.72;;;3.02;100.00
38900;BME280;24660;43.238;26.576;2022-12-07T03:26:49;99503.69;;;3.13;100.00
38900;BME280;24660;43.238;26.576;2022-12-07T03:29:19;99511.25;;;3.38;100.00
38900;BME280;24660;43.238;26.576;2022-12-07T03:31:47;99500.34;;;3.44;100.00
38900;BME280;24660;43.238;26.576;2022-12-07T03:34:16;99495.84;;;3.46;100.00
38900;BME280;24660;43.238;26.576;2022-12-07T03:36:49;99504.88;;;3.25;100.00
38900;BME280;24660;43.238;26.576;2022-12-07T03:41:42;99499.88;;;3.19;100.00
38900;BME280;24660;43.238;26.576;2022-12-07T03:44:07;99504.22;;;3.20;100.00
38900;BME280;24660;43.238;26.576;2022-12-07T03:46:37;99504.31;;;3.18;100.00
38900;BME280;24660;43.238;26.576;2022-12-07T03:54:36;99488.13;;;3.76;100.00
38900;BME280;24660;43.238;26.576;2022-12-07T03:57:05;99484.84;;;3.38;100.00
38900;BME280;24660;43.238;26.576;2022-12-07T03:59:30;99484.97;;;3.52;100.00
38900;BME280;24660;43.238;26.576;2022-12-07T04:01:57;99485.56;;;3.75;100.00
38900;BME280;24660;43.238;26.576;2022-12-07T04:04:26;99484.75;;;3.90;100.00
38900;BME280;24660;43.238;26.576;2022-12-07T04:06:51;99477.66;;;3.91;100.00
38900;BME280;24660;43.238;26.576;2022-12-07T04:09:17;99479.47;;;3.90;100.00
38900;BME280;24660;43.238;26.576;2022-12-07T04:11:42;99471.09;;;3.82;100.00
38900;BME280;24660;43.238;26.576;2022-12-07T04:14:08;99473.69;;;3.66;100.00
38900;BME280;24660;43.238;26.576;2022-12-07T04:16:49;99468.16;;;3.71;100.00
38900;BME280;24660;43.238;26.576;2022-12-07T04:19:16;99470.72;;;3.72;100.00
38900;BME280;24660;43.238;26.576;2022-12-07T04:21:42;99473.44;;;3.71;100.00
38900;BME280;24660;43.238;26.576;2022-12-07T04:24:07;99471.97;;;3.65;100.00
38900;BME280;24660;43.238;26.576;2022-12-07T04:26:32;99475.47;;;3.48;100.00
38900;BME280;24660;43.238;26.576;2022-12-07T04:28:58;99468.78;;;3.58;100.00
38900;BME280;24660;43.238;26.576;2022-12-07T04:31:23;99463.69;;;3.55;100.00
38900;BME280;24660;43.238;26.576;2022-12-07T04:33:48;99460.41;;;3.33;100.00
38900;BME280;24660;43.238;26.576;2022-12-07T04:36:14;99461.72;;;3.59;100.00
38900;BME280;24660;43.238;26.576;2022-12-07T04:38:39;99450.50;;;3.38;100.00
38900;BME280;24660;43.238;26.576;2022-12-07T04:41:06;99455.06;;;3.35;100.00
38900;BME280;24660;43.238;26.576;2022-12-07T04:43:32;99464.00;;;3.32;100.00
38900;BME280;24660;43.238;26.576;2022-12-07T04:45:58;99462.91;;;3.36;100.00
38900;BME280;24660;43.238;26.576;2022-12-07T04:48:23;99463.53;;;3.24;100.00
38900;BME280;24660;43.238;26.576;2022-12-07T04:50:48;99450.47;;;3.55;100.00
38900;BME280;24660;43.238;26.576;2022-12-07T04:53:15;99466.25;;;3.40;100.00
38900;BME280;24660;43.238;26.576;2022-12-07T04:55:40;99472.75;;;3.67;100.00
38900;BME280;24660;43.238;26.576;2022-12-07T04:58:06;99468.63;;;3.62;100.00
38900;BME280;24660;43.238;26.576;2022-12-07T05:00:31;99466.66;;;3.82;100.00
38900;BME280;24660;43.238;26.576;2022-12-07T05:02:56;99460.47;;;3.66;100.00
38900;BME280;24660;43.238;26.576;2022-12-07T05:05:22;99460.28;;;3.86;100.00
38900;BME280;24660;43.238;26.576;2022-12-07T05:07:47;99458.69;;;3.67;100.00
38900;BME280;24660;43.238;26.576;2022-12-07T05:10:12;99467.13;;;3.73;100.00
38900;BME280;24660;43.238;26.576;2022-12-07T05:12:38;99461.91;;;4.05;100.00
38900;BME280;24660;43.238;26.576;2022-12-07T05:15:03;99464.34;;;4.09;100.00
38900;BME280;24660;43.238;26.576;2022-12-07T05:17:29;99464.66;;;4.19;100.00
38900;BME280;24660;43.238;26.576;2022-12-07T05:19:54;99456.47;;;4.08;100.00
38900;BME280;24660;43.238;26.576;2022-12-07T05:22:19;99451.06;;;3.94;100.00
38900;BME280;24660;43.238;26.576;2022-12-07T05:24:45;99453.88;;;3.57;100.00
38900;BME280;24660;43.238;26.576;2022-12-07T05:27:10;99456.78;;;3.86;100.00
38900;BME280;24660;43.238;26.576;2022-12-07T05:29:35;99456.13;;;3.98;100.00
38900;BME280;24660;43.238;26.576;2022-12-07T05:32:01;99451.66;;;3.83;100.00
38900;BME280;24660;43.238;26.576;2022-12-07T05:34:26;99458.19;;;3.76;100.00
38900;BME280;24660;43.238;26.576;2022-12-07T05:36:51;99464.78;;;3.84;100.00
38900;BME280;24660;43.238;26.576;2022-12-07T05:39:17;99461.50;;;3.79;100.00
38900;BME280;24660;43.238;26.576;2022-12-07T05:41:42;99466.19;;;3.74;100.00
38900;BME280;24660;43.238;26.576;2022-12-07T05:44:23;99470.06;;;3.84;100.00
38900;BME280;24660;43.238;26.576;2022-12-07T05:46:48;99485.31;;;4.12;100.00
38900;BME280;24660;43.238;26.576;2022-12-07T05:49:13;99474.91;;;4.09;100.00
38900;BME280;24660;43.238;26.576;2022-12-07T05:51:38;99469.25;;;4.00;100.00
38900;BME280;24660;43.238;26.576;2022-12-07T05:54:04;99479.09;;;4.13;100.00
38900;BME280;24660;43.238;26.576;2022-12-07T05:56:29;99462.84;;;4.04;100.00
38900;BME280;24660;43.238;26.576;2022-12-07T05:58:54;99460.66;;;3.79;100.00
38900;BME280;24660;43.238;26.576;2022-12-07T06:01:35;99462.56;;;3.93;100.00
38900;BME280;24660;43.238;26.576;2022-12-07T06:04:00;99467.25;;;3.87;100.00
38900;BME280;24660;43.238;26.576;2022-12-07T06:06:26;99470.72;;;3.72;100.00
38900;BME280;24660;43.238;26.576;2022-12-07T06:08:51;99466.50;;;3.85;100.00
38900;BME280;24660;43.238;26.576;2022-12-07T06:11:16;99464.84;;;4.32;100.00
38900;BME280;24660;43.238;26.576;2022-12-07T06:13:57;99462.47;;;4.43;100.00
38900;BME280;24660;43.238;26.576;2022-12-07T06:16:22;99452.94;;;3.92;100.00
38900;BME280;24660;43.238;26.576;2022-12-07T06:18:47;99460.28;;;4.02;100.00
38900;BME280;24660;43.238;26.576;2022-12-07T06:21:13;99464.09;;;4.30;100.00
38900;BME280;24660;43.238;26.576;2022-12-07T06:23:39;99461.81;;;4.55;100.00
38900;BME280;24660;43.238;26.576;2022-12-07T06:26:04;99457.94;;;4.45;100.00
38900;BME280;24660;43.238;26.576;2022-12-07T06:28:30;99465.53;;;4.35;100.00
38900;BME280;24660;43.238;26.576;2022-12-07T06:30:57;99462.53;;;4.10;100.00
38900;BME280;24660;43.238;26.576;2022-12-07T06:33:23;99468.63;;;4.28;100.00
38900;BME280;24660;43.238;26.576;2022-12-07T06:35:49;99477.84;;;4.68;100.00
38900;BME280;24660;43.238;26.576;2022-12-07T06:38:14;99471.75;;;4.97;100.00
38900;BME280;24660;43.238;26.576;2022-12-07T06:40:39;99465.50;;;4.98;100.00
38900;BME280;24660;43.238;26.576;2022-12-07T06:43:05;99461.94;;;4.84;100.00
38900;BME280;24660;43.238;26.576;2022-12-07T06:45:30;99466.88;;;4.90;100.00
38900;BME280;24660;43.238;26.576;2022-12-07T06:47:55;99459.53;;;4.95;100.00
38900;BME280;24660;43.238;26.576;2022-12-07T06:50:21;99461.66;;;4.88;100.00
38900;BME280;24660;43.238;26.576;2022-12-07T06:52:46;99474.00;;;4.58;100.00
38900;BME280;24660;43.238;26.576;2022-12-07T06:55:11;99483.63;;;4.27;100.00
38900;BME280;24660;43.238;26.576;2022-12-07T06:57:36;99482.63;;;4.45;100.00
38900;BME280;24660;43.238;26.576;2022-12-07T07:00:02;99475.22;;;4.52;100.00
38900;BME280;24660;43.238;26.576;2022-12-07T07:02:28;99481.84;;;4.59;100.00
38900;BME280;24660;43.238;26.576;2022-12-07T07:04:53;99482.38;;;4.82;100.00
38900;BME280;24660;43.238;26.576;2022-12-07T07:07:18;99484.00;;;4.84;100.00
38900;BME280;24660;43.238;26.576;2022-12-07T07:09:43;99481.22;;;5.01;100.00
38900;BME280;24660;43.238;26.576;2022-12-07T07:12:09;99475.88;;;5.17;100.00
38900;BME280;24660;43.238;26.576;2022-12-07T07:14:34;99472.75;;;5.41;100.00
38900;BME280;24660;43.238;26.576;2022-12-07T07:16:59;99474.69;;;5.23;100.00
38900;BME280;24660;43.238;26.576;2022-12-07T07:19:25;99468.56;;;5.06;100.00
38900;BME280;24660;43.238;26.576;2022-12-07T07:21:50;99460.78;;;5.33;100.00
38900;BME280;24660;43.238;26.576;2022-12-07T07:24:15;99455.38;;;5.21;100.00
38900;BME280;24660;43.238;26.576;2022-12-07T07:26:41;99455.91;;;5.42;100.00
38900;BME280;24660;43.238;26.576;2022-12-07T07:29:06;99456.03;;;5.54;100.00
38900;BME280;24660;43.238;26.576;2022-12-07T07:31:31;99450.34;;;5.75;100.00
38900;BME280;24660;43.238;26.576;2022-12-07T07:33:57;99440.72;;;5.29;100.00
38900;BME280;24660;43.238;26.576;2022-12-07T07:36:22;99446.44;;;5.38;100.00
38900;BME280;24660;43.238;26.576;2022-12-07T07:38:47;99436.09;;;5.33;100.00
38900;BME280;24660;43.238;26.576;2022-12-07T07:41:13;99443.19;;;5.32;100.00
38900;BME280;24660;43.238;26.576;2022-12-07T07:43:38;99453.19;;;5.57;100.00
38900;BME280;24660;43.238;26.576;2022-12-07T07:46:03;99450.97;;;5.94;100.00
38900;BME280;24660;43.238;26.576;2022-12-07T07:48:29;99445.94;;;6.04;100.00
38900;BME280;24660;43.238;26.576;2022-12-07T07:50:54;99442.16;;;6.08;100.00
38900;BME280;24660;43.238;26.576;2022-12-07T07:53:19;99429.75;;;6.08;100.00
38900;BME280;24660;43.238;26.576;2022-12-07T07:55:52;99432.31;;;5.95;100.00
38900;BME280;24660;43.238;26.576;2022-12-07T07:58:18;99432.97;;;5.99;100.00
38900;BME280;24660;43.238;26.576;2022-12-07T08:00:43;99434.28;;;6.20;100.00
38900;BME280;24660;43.238;26.576;2022-12-07T08:03:12;99428.56;;;5.84;100.00
38900;BME280;24660;43.238;26.576;2022-12-07T08:05:37;99441.53;;;6.31;100.00
38900;BME280;24660;43.238;26.576;2022-12-07T08:08:03;99441.94;;;6.39;100.00
38900;BME280;24660;43.238;26.576;2022-12-07T08:10:28;99437.94;;;6.32;100.00
38900;BME280;24660;43.238;26.576;2022-12-07T08:12:53;99431.69;;;6.19;100.00
38900;BME280;24660;43.238;26.576;2022-12-07T08:15:35;99449.78;;;6.41;100.00
38900;BME280;24660;43.238;26.576;2022-12-07T08:18:04;99453.84;;;6.46;100.00
38900;BME280;24660;43.238;26.576;2022-12-07T08:20:30;99442.56;;;6.84;100.00
38900;BME280;24660;43.238;26.576;2022-12-07T08:23:19;99435.59;;;6.96;100.00
38900;BME280;24660;43.238;26.576;2022-12-07T08:25:46;99438.59;;;7.04;100.00
38900;BME280;24660;43.238;26.576;2022-12-07T08:28:12;99434.63;;;6.97;100.00
38900;BME280;24660;43.238;26.576;2022-12-07T08:30:37;99441.97;;;6.66;100.00
38900;BME280;24660;43.238;26.576;2022-12-07T08:33:02;99433.06;;;6.53;100.00
38900;BME280;24660;43.238;26.576;2022-12-07T08:35:28;99436.63;;;6.39;100.00
38900;BME280;24660;43.238;26.576;2022-12-07T08:37:53;99443.06;;;6.76;100.00
38900;BME280;24660;43.238;26.576;2022-12-07T08:40:19;99444.00;;;7.02;100.00
38900;BME280;24660;43.238;26.576;2022-12-07T08:42:49;99434.22;;;7.03;100.00
38900;BME280;24660;43.238;26.576;2022-12-07T08:45:15;99445.09;;;7.12;100.00
38900;BME280;24660;43.238;26.576;2022-12-07T08:47:46;99450.56;;;7.36;100.00
38900;BME280;24660;43.238;26.576;2022-12-07T08:50:13;99443.44;;;7.24;100.00
38900;BME280;24660;43.238;26.576;2022-12-07T08:52:39;99442.28;;;7.54;100.00
38900;BME280;24660;43.238;26.576;2022-12-07T08:55:09;99428.69;;;7.71;100.00
38900;BME280;24660;43.238;26.576;2022-12-07T08:57:36;99432.28;;;7.44;100.00
38900;BME280;24660;43.238;26.576;2022-12-07T09:00:03;99435.16;;;7.41;100.00
38900;BME280;24660;43.238;26.576;2022-12-07T09:02:28;99418.25;;;7.55;100.00
38900;BME280;24660;43.238;26.576;2022-12-07T09:04:55;99421.16;;;7.12;100.00
38900;BME280;24660;43.238;26.576;2022-12-07T09:07:20;99407.94;;;6.98;100.00
38900;BME280;24660;43.238;26.576;2022-12-07T09:09:45;99414.47;;;7.07;100.00
38900;BME280;24660;43.238;26.576;2022-12-07T09:12:14;99401.88;;;7.61;100.00
38900;BME280;24660;43.238;26.576;2022-12-07T09:14:39;99392.44;;;8.19;100.00
38900;BME280;24660;43.238;26.576;2022-12-07T09:17:05;99386.44;;;8.28;100.00
38900;BME280;24660;43.238;26.576;2022-12-07T09:19:31;99382.38;;;8.48;100.00
38900;BME280;24660;43.238;26.576;2022-12-07T09:21:57;99367.84;;;8.16;100.00
38900;BME280;24660;43.238;26.576;2022-12-07T09:24:23;99369.38;;;8.68;100.00
38900;BME280;24660;43.238;26.576;2022-12-07T09:26:51;99366.50;;;8.47;100.00
38900;BME280;24660;43.238;26.576;2022-12-07T09:29:17;99363.53;;;7.89;100.00
38900;BME280;24660;43.238;26.576;2022-12-07T09:31:45;99363.34;;;7.67;100.00
38900;BME280;24660;43.238;26.576;2022-12-07T09:34:10;99358.66;;;7.58;100.00
38900;BME280;24660;43.238;26.576;2022-12-07T09:36:38;99362.94;;;7.48;100.00
38900;BME280;24660;43.238;26.576;2022-12-07T09:39:04;99355.16;;;7.57;100.00
38900;BME280;24660;43.238;26.576;2022-12-07T09:41:30;99344.28;;;7.73;100.00
38900;BME280;24660;43.238;26.576;2022-12-07T09:44:00;99348.31;;;7.91;100.00
38900;BME280;24660;43.238;26.576;2022-12-07T09:46:27;99350.47;;;8.23;100.00
38900;BME280;24660;43.238;26.576;2022-12-07T09:48:53;99349.44;;;8.49;100.00
38900;BME280;24660;43.238;26.576;2022-12-07T09:51:20;99347.78;;;8.36;100.00
38900;BME280;24660;43.238;26.576;2022-12-07T09:53:48;99337.63;;;8.88;100.00
38900;BME280;24660;43.238;26.576;2022-12-07T09:56:15;99330.47;;;8.89;100.00
38900;BME280;24660;43.238;26.576;2022-12-07T09:58:41;99330.41;;;9.02;100.00
38900;BME280;24660;43.238;26.576;2022-12-07T10:03:32;99330.31;;;9.26;100.00
38900;BME280;24660;43.238;26.576;2022-12-07T10:05:58;99325.47;;;9.19;100.00
38900;BME280;24660;43.238;26.576;2022-12-07T10:08:24;99319.88;;;9.22;100.00
38900;BME280;24660;43.238;26.576;2022-12-07T10:10:51;99323.41;;;9.23;100.00
38900;BME280;24660;43.238;26.576;2022-12-07T10:13:21;99323.19;;;9.71;100.00
38900;BME280;24660;43.238;26.576;2022-12-07T10:18:20;99311.09;;;9.44;100.00
38900;BME280;24660;43.238;26.576;2022-12-07T10:20:47;99321.63;;;9.46;100.00
38900;BME280;24660;43.238;26.576;2022-12-07T10:23:15;99321.38;;;9.82;100.00
38900;BME280;24660;43.238;26.576;2022-12-07T10:25:43;99318.47;;;9.86;100.00
38900;BME280;24660;43.238;26.576;2022-12-07T10:33:26;99311.53;;;9.94;100.00
38900;BME280;24660;43.238;26.576;2022-12-07T10:35:52;99305.34;;;9.94;100.00
38900;BME280;24660;43.238;26.576;2022-12-07T10:38:18;99296.75;;;9.68;100.00
38900;BME280;24660;43.238;26.576;2022-12-07T10:40:43;99292.38;;;9.78;100.00
38900;BME280;24660;43.238;26.576;2022-12-07T10:43:17;99290.81;;;9.31;100.00
38900;BME280;24660;43.238;26.576;2022-12-07T10:48:32;99285.91;;;9.13;100.00
38900;BME280;24660;43.238;26.576;2022-12-07T10:58:52;99276.38;;;10.44;100.00
38900;BME280;24660;43.238;26.576;2022-12-07T11:01:27;99267.09;;;10.16;100.00
38900;BME280;24660;43.238;26.576;2022-12-07T11:06:50;99269.63;;;10.60;100.00
38900;BME280;24660;43.238;26.576;2022-12-07T11:12:08;99257.41;;;9.92;100.00
38900;BME280;24660;43.238;26.576;2022-12-07T11:14:39;99255.34;;;9.96;100.00
38900;BME280;24660;43.238;26.576;2022-12-07T11:17:09;99258.28;;;10.36;100.00
38900;BME280;24660;43.238;26.576;2022-12-07T11:25:02;99252.53;;;10.08;100.00
38900;BME280;24660;43.238;26.576;2022-12-07T11:27:41;99259.56;;;9.98;100.00
38900;BME280;24660;43.238;26.576;2022-12-07T11:30:18;99259.66;;;10.30;100.00
38900;BME280;24660;43.238;26.576;2022-12-07T11:35:33;99245.19;;;10.33;100.00
38900;BME280;24660;43.238;26.576;2022-12-07T11:38:07;99241.13;;;10.50;100.00
38900;BME280;24660;43.238;26.576;2022-12-07T11:40:34;99242.50;;;10.44;100.00
38900;BME280;24660;43.238;26.576;2022-12-07T11:43:02;99234.22;;;10.47;100.00
38900;BME280;24660;43.238;26.576;2022-12-07T11:45:30;99230.91;;;10.11;100.00
38900;BME280;24660;43.238;26.576;2022-12-07T11:50:26;99223.19;;;10.61;100.00
38900;BME280;24660;43.238;26.576;2022-12-07T11:52:55;99223.28;;;10.71;100.00
38900;BME280;24660;43.238;26.576;2022-12-07T11:55:26;99219.28;;;10.45;100.00
38900;BME280;24660;43.238;26.576;2022-12-07T11:58:03;99212.16;;;10.55;100.00
38900;BME280;24660;43.238;26.576;2022-12-07T12:00:29;99214.84;;;10.76;100.00
38900;BME280;24660;43.238;26.576;2022-12-07T12:02:58;99213.94;;;10.45;100.00
38900;BME280;24660;43.238;26.576;2022-12-07T12:05:26;99206.09;;;10.21;100.00
38900;BME280;24660;43.238;26.576;2022-12-07T12:07:57;99211.31;;;9.90;100.00
38900;BME280;24660;43.238;26.576;2022-12-07T12:10:37;99208.31;;;10.16;100.00
38900;BME280;24660;43.238;26.576;2022-12-07T12:13:47;99202.84;;;10.17;100.00
38900;BME280;24660;43.238;26.576;2022-12-07T12:18:45;99198.50;;;10.16;100.00
38900;BME280;24660;43.238;26.576;2022-12-07T12:21:15;99199.53;;;9.93;100.00
38900;BME280;24660;43.238;26.576;2022-12-07T12:23:42;99202.78;;;9.96;100.00
38900;BME280;24660;43.238;26.576;2022-12-07T12:28:54;99194.88;;;10.06;100.00
38900;BME280;24660;43.238;26.576;2022-12-07T12:33:47;99192.53;;;9.80;100.00
38900;BME280;24660;43.238;26.576;2022-12-07T12:38:48;99189.41;;;10.07;100.00
38900;BME280;24660;43.238;26.576;2022-12-07T12:43:54;99187.09;;;10.46;100.00
38900;BME280;24660;43.238;26.576;2022-12-07T12:51:43;99183.44;;;10.47;100.00
38900;BME280;24660;43.238;26.576;2022-12-07T12:54:11;99183.63;;;10.34;100.00
38900;BME280;24660;43.238;26.576;2022-12-07T13:01:46;99179.06;;;10.14;100.00
38900;BME280;24660;43.238;26.576;2022-12-07T13:06:52;99175.91;;;10.09;100.00
38900;BME280;24660;43.238;26.576;2022-12-07T13:09:19;99174.22;;;10.08;100.00
38900;BME280;24660;43.238;26.576;2022-12-07T13:11:46;99176.22;;;9.95;100.00
38900;BME280;24660;43.238;26.576;2022-12-07T13:16:52;99183.19;;;9.75;100.00
38900;BME280;24660;43.238;26.576;2022-12-07T13:21:58;99184.47;;;9.92;100.00
38900;BME280;24660;43.238;26.576;2022-12-07T13:24:24;99182.13;;;9.66;100.00
38900;BME280;24660;43.238;26.576;2022-12-07T13:26:51;99192.88;;;9.87;100.00
38900;BME280;24660;43.238;26.576;2022-12-07T13:29:20;99177.09;;;9.84;100.00
38900;BME280;24660;43.238;26.576;2022-12-07T13:34:29;99181.59;;;9.83;100.00
38900;BME280;24660;43.238;26.576;2022-12-07T13:36:54;99177.56;;;10.00;100.00
38900;BME280;24660;43.238;26.576;2022-12-07T13:39:21;99180.16;;;10.11;100.00
38900;BME280;24660;43.238;26.576;2022-12-07T13:41:49;99179.31;;;10.11;100.00
38900;BME280;24660;43.238;26.576;2022-12-07T13:44:16;99171.75;;;9.84;100.00
38900;BME280;24660;43.238;26.576;2022-12-07T13:51:49;99175.34;;;10.05;100.00
38900;BME280;24660;43.238;26.576;2022-12-07T13:54:15;99178.47;;;10.10;100.00
38900;BME280;24660;43.238;26.576;2022-12-07T13:56:41;99174.69;;;10.13;100.00
38900;BME280;24660;43.238;26.576;2022-12-07T13:59:10;99178.00;;;9.73;100.00
38900;BME280;24660;43.238;26.576;2022-12-07T14:01:38;99184.06;;;9.64;100.00
38900;BME280;24660;43.238;26.576;2022-12-07T14:06:51;99189.56;;;9.40;100.00
38900;BME280;24660;43.238;26.576;2022-12-07T14:09:18;99192.13;;;9.31;100.00
38900;BME280;24660;43.238;26.576;2022-12-07T14:11:44;99190.44;;;9.30;100.00
38900;BME280;24660;43.238;26.576;2022-12-07T14:14:11;99187.03;;;8.94;100.00
38900;BME280;24660;43.238;26.576;2022-12-07T14:16:38;99196.09;;;8.80;100.00
38900;BME280;24660;43.238;26.576;2022-12-07T14:19:04;99200.22;;;8.73;100.00
38900;BME280;24660;43.238;26.576;2022-12-07T14:21:31;99197.47;;;8.51;100.00
38900;BME280;24660;43.238;26.576;2022-12-07T14:26:38;99205.47;;;8.27;100.00
38900;BME280;24660;43.238;26.576;2022-12-07T14:31:45;99206.84;;;8.32;100.00
38900;BME280;24660;43.238;26.576;2022-12-07T14:34:12;99204.56;;;8.15;100.00
38900;BME280;24660;43.238;26.576;2022-12-07T14:36:37;99209.56;;;8.20;100.00
38900;BME280;24660;43.238;26.576;2022-12-07T14:39:02;99211.28;;;8.21;100.00